sensor_id;sensor_type;location;lat;lon;timestamp;pressure;altitude;pressure_sealevel;temperature;humidity
12664;BME280;6396;58.490;15.528;2023-05-22T00:00:54;101318.59;;;13.04;100.00
12664;BME280;6396;58.490;15.528;2023-05-22T00:03:21;101806.31;;;16.11;100.00
12664;BME280;6396;58.490;15.528;2023-05-22T00:05:50;101801.19;;;15.75;100.00
12664;BME280;6396;58.490;15.528;2023-05-22T00:08:17;101440.88;;;13.96;100.00
12664;BME280;6396;58.490;15.528;2023-05-22T00:10:44;100910.78;;;10.92;100.00
12664;BME280;6396;58.490;15.528;2023-05-22T00:13:11;101182.09;;;12.15;100.00
12664;BME280;6396;58.490;15.528;2023-05-22T00:15:38;101794.09;;;16.06;100.00
12664;BME280;6396;58.490;15.528;2023-05-22T00:18:05;101297.25;;;13.09;100.00
12664;BME280;6396;58.490;15.528;2023-05-22T00:20:32;101543.03;;;14.50;100.00
12664;BME280;6396;58.490;15.528;2023-05-22T00:23:04;101155.88;;;12.04;100.00
12664;BME280;6396;58.490;15.528;2023-05-22T00:25:34;101331.34;;;13.24;100.00
12664;BME280;6396;58.490;15.528;2023-05-22T00:28:01;101906.91;;;16.05;100.00
12664;BME280;6396;58.490;15.528;2023-05-22T00:30:29;100980.41;;;11.29;100.00
12664;BME280;6396;58.490;15.528;2023-05-22T00:32:56;101875.91;;;16.02;100.00
12664;BME280;6396;58.490;15.528;2023-05-22T00:35:22;101560.69;;;14.53;100.00
12664;BME280;6396;58.490;15.528;2023-05-22T00:37:50;101336.97;;;13.12;100.00
12664;BME280;6396;58.490;15.528;2023-05-22T00:40:19;101875.97;;;15.99;100.00
12664;BME280;6396;58.490;15.528;2023-05-22T00:42:46;101489.97;;;14.14;100.00
12664;BME280;6396;58.490;15.528;2023-05-22T00:45:13;101033.03;;;11.40;100.00
12664;BME280;6396;58.490;15.528;2023-05-22T00:47:40;101871.97;;;15.85;100.00
12664;BME280;6396;58.490;15.528;2023-05-22T00:50:09;101533.78;;;14.33;100.00
12664;BME280;6396;58.490;15.528;2023-05-22T00:52:41;101070.72;;;11.49;100.00
12664;BME280;6396;58.490;15.528;2023-05-22T00:55:10;101208.81;;;12.04;100.00
12664;BME280;6396;58.490;15.528;2023-05-22T00:57:38;101647.94;;;15.03;100.00
12664;BME280;6396;58.490;15.528;2023-05-22T01:00:07;101810.69;;;15.85;100.00
12664;BME280;6396;58.490;15.528;2023-05-22T01:02:36;101818.78;;;15.80;100.00
12664;BME280;6396;58.490;15.528;2023-05-22T01:05:05;101806.38;;;15.81;100.00
12664;BME280;6396;58.490;15.528;2023-05-22T01:07:33;101410.00;;;13.60;100.00
12664;BME280;6396;58.490;15.528;2023-05-22T01:10:03;101780.81;;;15.74;100.00
12664;BME280;6396;58.490;15.528;2023-05-22T01:12:37;101680.53;;;15.11;100.00
12664;BME280;6396;58.490;15.528;2023-05-22T01:15:16;101784.16;;;15.80;100.00
12664;BME280;6396;58.490;15.528;2023-05-22T01:17:49;101642.75;;;14.99;100.00
12664;BME280;6396;58.490;15.528;2023-05-22T01:20:23;101524.22;;;14.26;100.00
12664;BME280;6396;58.490;15.528;2023-05-22T01:26:18;101787.19;;;15.68;100.00
12664;BME280;6396;58.490;15.528;2023-05-22T01:29:08;101785.47;;;15.67;100.00
12664;BME280;6396;58.490;15.528;2023-05-22T01:31:40;101810.22;;;15.71;100.00
12664;BME280;6396;58.490;15.528;2023-05-22T01:34:10;101425.03;;;13.26;100.00
12664;BME280;6396;58.490;15.528;2023-05-22T01:36:38;101805.13;;;15.61;100.00
12664;BME280;6396;58.490;15.528;2023-05-22T01:39:07;101702.78;;;14.75;100.00
12664;BME280;6396;58.490;15.528;2023-05-22T01:41:34;101794.63;;;15.55;100.00
12664;BME280;6396;58.490;15.528;2023-05-22T01:44:01;101640.91;;;14.69;100.00
12664;BME280;6396;58.490;15.528;2023-05-22T01:46:28;101704.97;;;14.93;100.00
12664;BME280;6396;58.490;15.528;2023-05-22T01:48:57;101792.41;;;15.40;100.00
12664;BME280;6396;58.490;15.528;2023-05-22T01:51:31;101657.97;;;14.25;100.00
12664;BME280;6396;58.490;15.528;2023-05-22T01:54:04;101793.41;;;15.35;100.00
12664;BME280;6396;58.490;15.528;2023-05-22T01:56:37;101792.72;;;15.28;100.00
12664;BME280;6396;58.490;15.528;2023-05-22T01:59:10;101810.53;;;15.25;100.00
12664;BME280;6396;58.490;15.528;2023-05-22T02:01:40;101790.16;;;15.24;100.00
12664;BME280;6396;58.490;15.528;2023-05-22T02:04:11;101797.31;;;15.22;100.00
12664;BME280;6396;58.490;15.528;2023-05-22T02:06:40;101721.06;;;14.89;100.00
12664;BME280;6396;58.490;15.528;2023-05-22T02:09:07;101345.31;;;12.57;100.00
12664;BME280;6396;58.490;15.528;2023-05-22T02:11:36;101242.53;;;11.96;100.00
12664;BME280;6396;58.490;15.528;2023-05-22T02:14:04;101334.03;;;12.48;100.00
12664;BME280;6396;58.490;15.528;2023-05-22T02:16:33;101552.53;;;13.92;100.00
12664;BME280;6396;58.490;15.528;2023-05-22T02:19:00;101768.72;;;15.30;100.00
12664;BME280;6396;58.490;15.528;2023-05-22T02:21:33;100949.47;;;10.10;100.00
12664;BME280;6396;58.490;15.528;2023-05-22T02:24:01;101273.44;;;12.34;100.00
12664;BME280;6396;58.490;15.528;2023-05-22T02:26:29;101775.38;;;15.12;100.00
12664;BME280;6396;58.490;15.528;2023-05-22T02:28:56;101798.50;;;15.10;100.00
12664;BME280;6396;58.490;15.528;2023-05-22T02:31:23;101446.31;;;13.23;100.00
12664;BME280;6396;58.490;15.528;2023-05-22T02:33:50;101796.81;;;15.06;100.00
12664;BME280;6396;58.490;15.528;2023-05-22T02:36:17;101365.06;;;12.43;100.00
12664;BME280;6396;58.490;15.528;2023-05-22T02:38:45;101659.41;;;14.39;100.00
12664;BME280;6396;58.490;15.528;2023-05-22T02:41:12;101860.13;;;14.94;100.00
12664;BME280;6396;58.490;15.528;2023-05-22T02:43:39;101621.81;;;14.18;100.00
12664;BME280;6396;58.490;15.528;2023-05-22T02:46:06;101321.53;;;12.14;100.00
12664;BME280;6396;58.490;15.528;2023-05-22T02:48:33;101265.91;;;12.16;100.00
12664;BME280;6396;58.490;15.528;2023-05-22T02:51:00;101480.81;;;12.82;100.00
12664;BME280;6396;58.490;15.528;2023-05-22T02:53:26;101704.31;;;14.12;100.00
12664;BME280;6396;58.490;15.528;2023-05-22T02:55:55;101203.53;;;11.62;100.00
12664;BME280;6396;58.490;15.528;2023-05-22T02:58:23;101444.09;;;13.05;100.00
12664;BME280;6396;58.490;15.528;2023-05-22T03:00:50;101275.88;;;12.05;100.00
12664;BME280;6396;58.490;15.528;2023-05-22T03:03:18;101291.81;;;12.02;100.00
12664;BME280;6396;58.490;15.528;2023-05-22T03:05:45;101801.75;;;14.88;100.00
12664;BME280;6396;58.490;15.528;2023-05-22T03:08:12;101280.63;;;11.88;100.00
12664;BME280;6396;58.490;15.528;2023-05-22T03:10:40;101555.56;;;12.97;100.00
12664;BME280;6396;58.490;15.528;2023-05-22T03:13:09;101784.34;;;14.75;100.00
12664;BME280;6396;58.490;15.528;2023-05-22T03:15:36;101756.84;;;14.76;100.00
12664;BME280;6396;58.490;15.528;2023-05-22T03:18:02;101755.91;;;14.77;100.00
12664;BME280;6396;58.490;15.528;2023-05-22T03:20:30;101629.13;;;14.08;100.00
12664;BME280;6396;58.490;15.528;2023-05-22T03:22:58;101777.97;;;14.82;100.00
12664;BME280;6396;58.490;15.528;2023-05-22T03:25:25;101779.63;;;14.86;100.00
12664;BME280;6396;58.490;15.528;2023-05-22T03:27:51;101535.91;;;13.47;100.00
12664;BME280;6396;58.490;15.528;2023-05-22T03:30:20;101600.16;;;13.98;100.00
12664;BME280;6396;58.490;15.528;2023-05-22T03:32:46;101461.81;;;13.01;100.00
12664;BME280;6396;58.490;15.528;2023-05-22T03:35:13;101780.28;;;14.95;100.00
12664;BME280;6396;58.490;15.528;2023-05-22T03:37:43;101639.53;;;14.17;100.00
12664;BME280;6396;58.490;15.528;2023-05-22T03:40:11;101503.75;;;13.61;100.00
12664;BME280;6396;58.490;15.528;2023-05-22T03:42:38;101834.88;;;15.10;100.00
12664;BME280;6396;58.490;15.528;2023-05-22T03:45:06;101379.63;;;13.00;100.00
12664;BME280;6396;58.490;15.528;2023-05-22T03:47:34;101246.19;;;12.29;100.00
12664;BME280;6396;58.490;15.528;2023-05-22T03:50:01;101781.38;;;15.20;100.00
12664;BME280;6396;58.490;15.528;2023-05-22T03:52:28;101625.66;;;14.41;100.00
12664;BME280;6396;58.490;15.528;2023-05-22T03:54:55;101620.88;;;14.55;100.00
12664;BME280;6396;58.490;15.528;2023-05-22T03:57:21;101603.41;;;14.45;100.00
12664;BME280;6396;58.490;15.528;2023-05-22T03:59:48;101660.44;;;14.68;100.00
12664;BME280;6396;58.490;15.528;2023-05-22T04:02:15;101609.50;;;14.50;100.00
12664;BME280;6396;58.490;15.528;2023-05-22T04:04:43;101547.06;;;13.98;100.00
12664;BME280;6396;58.490;15.528;2023-05-22T04:07:11;101753.16;;;15.13;100.00
12664;BME280;6396;58.490;15.528;2023-05-22T04:09:38;101410.34;;;13.11;100.00
12664;BME280;6396;58.490;15.528;2023-05-22T04:12:06;101793.81;;;15.20;100.00
12664;BME280;6396;58.490;15.528;2023-05-22T04:14:33;101502.94;;;13.59;100.00
12664;BME280;6396;58.490;15.528;2023-05-22T04:17:00;101679.69;;;14.42;100.00
12664;BME280;6396;58.490;15.528;2023-05-22T04:19:27;101774.28;;;15.21;100.00
12664;BME280;6396;58.490;15.528;2023-05-22T04:21:56;101691.16;;;14.79;100.00
12664;BME280;6396;58.490;15.528;2023-05-22T04:24:23;101634.88;;;14.62;100.00
12664;BME280;6396;58.490;15.528;2023-05-22T04:26:50;101747.94;;;15.10;100.00
12664;BME280;6396;58.490;15.528;2023-05-22T04:29:17;101681.59;;;14.72;100.00
12664;BME280;6396;58.490;15.528;2023-05-22T04:31:44;101780.00;;;15.39;100.00
12664;BME280;6396;58.490;15.528;2023-05-22T04:34:14;101716.06;;;15.09;100.00
12664;BME280;6396;58.490;15.528;2023-05-22T04:36:41;101680.88;;;14.98;100.00
12664;BME280;6396;58.490;15.528;2023-05-22T04:39:10;101710.66;;;15.12;100.00
12664;BME280;6396;58.490;15.528;2023-05-22T04:41:38;101776.19;;;15.49;100.00
12664;BME280;6396;58.490;15.528;2023-05-22T04:44:05;101753.13;;;15.48;100.00
12664;BME280;6396;58.490;15.528;2023-05-22T04:46:32;101754.84;;;15.51;100.00
12664;BME280;6396;58.490;15.528;2023-05-22T04:49:00;101701.72;;;15.14;100.00
12664;BME280;6396;58.490;15.528;2023-05-22T04:51:27;101328.97;;;13.13;100.00
12664;BME280;6396;58.490;15.528;2023-05-22T04:53:55;101283.38;;;12.63;100.00
12664;BME280;6396;58.490;15.528;2023-05-22T04:56:24;101686.66;;;15.13;100.00
12664;BME280;6396;58.490;15.528;2023-05-22T04:58:52;101656.16;;;14.94;100.00
12664;BME280;6396;58.490;15.528;2023-05-22T05:01:20;101270.09;;;12.64;100.00
12664;BME280;6396;58.490;15.528;2023-05-22T05:03:47;101643.72;;;14.64;100.00
12664;BME280;6396;58.490;15.528;2023-05-22T05:06:13;101804.09;;;15.67;100.00
12664;BME280;6396;58.490;15.528;2023-05-22T05:08:41;101484.53;;;14.20;100.00
12664;BME280;6396;58.490;15.528;2023-05-22T05:11:08;101414.91;;;13.75;100.00
12664;BME280;6396;58.490;15.528;2023-05-22T05:13:37;101691.03;;;15.48;100.00
12664;BME280;6396;58.490;15.528;2023-05-22T05:16:04;101773.31;;;15.88;100.00
12664;BME280;6396;58.490;15.528;2023-05-22T05:18:31;101639.34;;;14.92;100.00
12664;BME280;6396;58.490;15.528;2023-05-22T05:20:57;101755.44;;;15.91;100.00
12664;BME280;6396;58.490;15.528;2023-05-22T05:23:24;101683.47;;;15.63;100.00
12664;BME280;6396;58.490;15.528;2023-05-22T05:25:51;101746.19;;;16.03;100.00
12664;BME280;6396;58.490;15.528;2023-05-22T05:28:18;101654.13;;;15.34;100.00
12664;BME280;6396;58.490;15.528;2023-05-22T05:31:04;101854.31;;;16.11;100.00
12664;BME280;6396;58.490;15.528;2023-05-22T05:33:45;101085.59;;;12.26;100.00
12664;BME280;6396;58.490;15.528;2023-05-22T05:36:13;101313.88;;;13.49;100.00
12664;BME280;6396;58.490;15.528;2023-05-22T05:38:40;101473.47;;;14.67;100.00
12664;BME280;6396;58.490;15.528;2023-05-22T05:41:12;101264.22;;;13.22;100.00
12664;BME280;6396;58.490;15.528;2023-05-22T05:43:41;101420.34;;;14.66;100.00
12664;BME280;6396;58.490;15.528;2023-05-22T05:46:09;101348.41;;;14.10;100.00
12664;BME280;6396;58.490;15.528;2023-05-22T05:48:36;101470.53;;;15.05;100.00
12664;BME280;6396;58.490;15.528;2023-05-22T05:51:03;101455.06;;;14.60;100.00
12664;BME280;6396;58.490;15.528;2023-05-22T05:53:31;101259.94;;;14.08;100.00
12664;BME280;6396;58.490;15.528;2023-05-22T05:55:57;101372.22;;;14.73;100.00
12664;BME280;6396;58.490;15.528;2023-05-22T05:58:24;101004.16;;;12.67;100.00
12664;BME280;6396;58.490;15.528;2023-05-22T06:00:51;101466.09;;;15.33;100.00
12664;BME280;6396;58.490;15.528;2023-05-22T06:03:20;100969.97;;;12.59;100.00
12664;BME280;6396;58.490;15.528;2023-05-22T06:05:46;100897.63;;;11.96;100.00
12664;BME280;6396;58.490;15.528;2023-05-22T06:08:14;101718.78;;;17.07;100.00
12664;BME280;6396;58.490;15.528;2023-05-22T06:10:41;101722.03;;;17.15;100.00
12664;BME280;6396;58.490;15.528;2023-05-22T06:13:08;101077.38;;;13.01;100.00
12664;BME280;6396;58.490;15.528;2023-05-22T06:15:35;100916.66;;;12.70;100.00
12664;BME280;6396;58.490;15.528;2023-05-22T06:18:02;101293.56;;;14.68;100.00
12664;BME280;6396;58.490;15.528;2023-05-22T06:20:31;101717.63;;;17.38;100.00
12664;BME280;6396;58.490;15.528;2023-05-22T06:22:58;101371.09;;;15.35;100.00
12664;BME280;6396;58.490;15.528;2023-05-22T06:25:24;101420.91;;;15.84;100.00
12664;BME280;6396;58.490;15.528;2023-05-22T06:27:54;101625.88;;;17.16;100.00
12664;BME280;6396;58.490;15.528;2023-05-22T06:30:21;101498.03;;;16.38;100.00
12664;BME280;6396;58.490;15.528;2023-05-22T06:32:48;100917.88;;;13.16;100.00
12664;BME280;6396;58.490;15.528;2023-05-22T06:35:16;101401.38;;;15.59;100.00
12664;BME280;6396;58.490;15.528;2023-05-22T06:37:44;101397.44;;;15.71;100.00
12664;BME280;6396;58.490;15.528;2023-05-22T06:40:11;101767.81;;;17.78;100.00
12664;BME280;6396;58.490;15.528;2023-05-22T06:42:38;101679.59;;;17.32;100.00
12664;BME280;6396;58.490;15.528;2023-05-22T06:45:06;101594.13;;;16.61;100.00
12664;BME280;6396;58.490;15.528;2023-05-22T06:47:33;101517.38;;;16.18;100.00
12664;BME280;6396;58.490;15.528;2023-05-22T06:50:00;101059.88;;;13.26;100.00
12664;BME280;6396;58.490;15.528;2023-05-22T06:52:27;101283.50;;;15.03;100.00
12664;BME280;6396;58.490;15.528;2023-05-22T06:54:55;101744.84;;;17.49;100.00
12664;BME280;6396;58.490;15.528;2023-05-22T06:57:28;101573.94;;;16.28;100.00
12664;BME280;6396;58.490;15.528;2023-05-22T06:59:56;101374.09;;;15.52;100.00
12664;BME280;6396;58.490;15.528;2023-05-22T07:02:23;101479.31;;;16.15;100.00
12664;BME280;6396;58.490;15.528;2023-05-22T07:04:50;101298.69;;;15.00;100.00
12664;BME280;6396;58.490;15.528;2023-05-22T07:07:18;101238.91;;;15.36;100.00
12664;BME280;6396;58.490;15.528;2023-05-22T07:09:46;101020.22;;;14.54;100.00
12664;BME280;6396;58.490;15.528;2023-05-22T07:12:15;101422.78;;;17.44;100.00
12664;BME280;6396;58.490;15.528;2023-05-22T07:14:42;101415.50;;;17.89;100.00
12664;BME280;6396;58.490;15.528;2023-05-22T07:17:08;101310.50;;;17.67;100.00
12664;BME280;6396;58.490;15.528;2023-05-22T07:19:35;100959.72;;;15.73;100.00
12664;BME280;6396;58.490;15.528;2023-05-22T07:22:02;101636.19;;;19.58;100.00
12664;BME280;6396;58.490;15.528;2023-05-22T07:24:30;101720.03;;;20.18;100.00
12664;BME280;6396;58.490;15.528;2023-05-22T07:26:56;101335.78;;;17.99;100.00
12664;BME280;6396;58.490;15.528;2023-05-22T07:29:25;101457.31;;;18.30;98.05
12664;BME280;6396;58.490;15.528;2023-05-22T07:31:52;101446.19;;;18.41;100.00
12664;BME280;6396;58.490;15.528;2023-05-22T07:34:18;100988.91;;;15.76;97.62
12664;BME280;6396;58.490;15.528;2023-05-22T07:36:47;101276.16;;;17.38;97.26
12664;BME280;6396;58.490;15.528;2023-05-22T07:39:15;101790.00;;;20.32;96.34
12664;BME280;6396;58.490;15.528;2023-05-22T07:41:54;101039.94;;;16.89;93.95
12664;BME280;6396;58.490;15.528;2023-05-22T07:44:22;100965.72;;;17.34;92.67
12664;BME280;6396;58.490;15.528;2023-05-22T07:49:20;101732.50;;;23.44;80.11
12664;BME280;6396;58.490;15.528;2023-05-22T07:51:52;100946.09;;;19.67;72.55
12664;BME280;6396;58.490;15.528;2023-05-22T07:54:21;101106.78;;;21.20;63.42
12664;BME280;6396;58.490;15.528;2023-05-22T07:56:52;101029.47;;;21.79;60.99
12664;BME280;6396;58.490;15.528;2023-05-22T07:59:20;101352.72;;;24.14;57.88
12664;BME280;6396;58.490;15.528;2023-05-22T08:01:48;101033.41;;;23.04;55.28
12664;BME280;6396;58.490;15.528;2023-05-22T08:04:17;101678.88;;;27.42;52.61
12664;BME280;6396;58.490;15.528;2023-05-22T08:06:54;101719.97;;;27.60;47.33
12664;BME280;6396;58.490;15.528;2023-05-22T08:09:23;101265.50;;;25.90;50.39
12664;BME280;6396;58.490;15.528;2023-05-22T08:12:16;101049.94;;;24.79;45.85
12664;BME280;6396;58.490;15.528;2023-05-22T08:14:49;101532.13;;;27.66;46.32
12664;BME280;6396;58.490;15.528;2023-05-22T08:18:05;100936.94;;;24.84;43.18
12664;BME280;6396;58.490;15.528;2023-05-22T08:21:38;101013.75;;;24.69;42.09
12664;BME280;6396;58.490;15.528;2023-05-22T08:24:09;101409.50;;;27.18;46.78
12664;BME280;6396;58.490;15.528;2023-05-22T08:27:25;100988.66;;;23.01;45.55
12664;BME280;6396;58.490;15.528;2023-05-22T08:30:36;100976.41;;;22.08;47.32
12664;BME280;6396;58.490;15.528;2023-05-22T08:33:27;100946.59;;;21.98;50.99
12664;BME280;6396;58.490;15.528;2023-05-22T08:35:58;100912.50;;;21.72;49.76
12664;BME280;6396;58.490;15.528;2023-05-22T08:38:27;101643.84;;;26.12;51.38
12664;BME280;6396;58.490;15.528;2023-05-22T08:40:57;100971.41;;;21.89;51.19
12664;BME280;6396;58.490;15.528;2023-05-22T08:43:29;101656.44;;;25.88;52.31
12664;BME280;6396;58.490;15.528;2023-05-22T08:46:04;101693.63;;;25.61;52.40
12664;BME280;6396;58.490;15.528;2023-05-22T08:48:34;101637.22;;;25.42;52.25
12664;BME280;6396;58.490;15.528;2023-05-22T08:51:14;100853.53;;;20.89;51.22
12664;BME280;6396;58.490;15.528;2023-05-22T08:53:51;100878.81;;;20.59;52.02
12664;BME280;6396;58.490;15.528;2023-05-22T08:56:21;100930.59;;;21.56;52.26
12664;BME280;6396;58.490;15.528;2023-05-22T08:58:55;101126.28;;;22.86;50.93
12664;BME280;6396;58.490;15.528;2023-05-22T09:01:43;101083.13;;;22.61;49.80
12664;BME280;6396;58.490;15.528;2023-05-22T09:04:22;101287.84;;;24.65;49.20
12664;BME280;6396;58.490;15.528;2023-05-22T09:06:52;101096.19;;;23.67;49.20
12664;BME280;6396;58.490;15.528;2023-05-22T09:09:38;101610.53;;;27.37;47.18
12664;BME280;6396;58.490;15.528;2023-05-22T09:15:49;101402.22;;;26.30;46.18
12664;BME280;6396;58.490;15.528;2023-05-22T09:18:32;101093.09;;;25.24;43.67
12664;BME280;6396;58.490;15.528;2023-05-22T09:34:48;100886.47;;;23.47;38.05
12664;BME280;6396;58.490;15.528;2023-05-22T09:41:29;101137.00;;;25.17;39.90
12664;BME280;6396;58.490;15.528;2023-05-22T09:44:30;100982.06;;;23.90;41.46
12664;BME280;6396;58.490;15.528;2023-05-22T09:47:04;101312.91;;;25.96;39.71
12664;BME280;6396;58.490;15.528;2023-05-22T09:53:09;100837.56;;;21.80;38.68
12664;BME280;6396;58.490;15.528;2023-05-22T09:55:55;100859.38;;;21.76;40.96
12664;BME280;6396;58.490;15.528;2023-05-22T10:01:57;100843.06;;;21.13;42.86
12664;BME280;6396;58.490;15.528;2023-05-22T10:04:26;100761.47;;;20.61;42.93
12664;BME280;6396;58.490;15.528;2023-05-22T10:06:55;100954.34;;;21.50;43.65
12664;BME280;6396;58.490;15.528;2023-05-22T10:09:26;100857.78;;;20.79;44.22
12664;BME280;6396;58.490;15.528;2023-05-22T10:11:57;100760.09;;;20.13;44.54
12664;BME280;6396;58.490;15.528;2023-05-22T10:14:30;100924.00;;;20.93;44.50
12664;BME280;6396;58.490;15.528;2023-05-22T10:16:57;101199.94;;;22.32;45.36
12664;BME280;6396;58.490;15.528;2023-05-22T10:19:27;100749.38;;;20.27;42.18
12664;BME280;6396;58.490;15.528;2023-05-22T10:21:55;101525.63;;;25.02;44.13
12664;BME280;6396;58.490;15.528;2023-05-22T10:24:27;100953.97;;;21.42;42.99
12664;BME280;6396;58.490;15.528;2023-05-22T10:26:55;101498.06;;;24.97;44.00
12664;BME280;6396;58.490;15.528;2023-05-22T10:29:27;101027.34;;;22.63;43.14
12664;BME280;6396;58.490;15.528;2023-05-22T10:32:00;100784.97;;;21.25;42.08
12664;BME280;6396;58.490;15.528;2023-05-22T10:34:34;101576.34;;;26.32;42.04
12664;BME280;6396;58.490;15.528;2023-05-22T10:37:19;100756.88;;;21.55;40.11
12664;BME280;6396;58.490;15.528;2023-05-22T10:39:59;100695.38;;;21.76;39.99
12664;BME280;6396;58.490;15.528;2023-05-22T10:42:29;100959.25;;;23.11;40.67
12664;BME280;6396;58.490;15.528;2023-05-22T10:44:59;101336.56;;;25.70;39.95
12664;BME280;6396;58.490;15.528;2023-05-22T10:47:27;100770.44;;;22.16;38.75
12664;BME280;6396;58.490;15.528;2023-05-22T10:50:03;101506.50;;;26.71;38.80
12664;BME280;6396;58.490;15.528;2023-05-22T10:52:30;101482.63;;;26.87;40.34
12664;BME280;6396;58.490;15.528;2023-05-22T10:55:00;101382.41;;;25.95;37.13
12664;BME280;6396;58.490;15.528;2023-05-22T10:57:31;100775.88;;;22.40;39.38
12664;BME280;6396;58.490;15.528;2023-05-22T11:00:08;101038.25;;;24.44;32.44
12664;BME280;6396;58.490;15.528;2023-05-22T11:02:38;101009.03;;;24.38;37.40
12664;BME280;6396;58.490;15.528;2023-05-22T11:05:32;101464.63;;;26.86;33.52
12664;BME280;6396;58.490;15.528;2023-05-22T11:08:34;101457.47;;;26.85;36.89
12664;BME280;6396;58.490;15.528;2023-05-22T11:11:13;101285.56;;;25.99;37.28
12664;BME280;6396;58.490;15.528;2023-05-22T11:13:40;100769.09;;;22.60;37.63
12664;BME280;6396;58.490;15.528;2023-05-22T11:16:08;100754.38;;;22.76;35.22
12664;BME280;6396;58.490;15.528;2023-05-22T11:18:36;100921.34;;;23.61;34.44
12664;BME280;6396;58.490;15.528;2023-05-22T11:21:04;100758.78;;;23.01;33.10
12664;BME280;6396;58.490;15.528;2023-05-22T11:23:33;101459.94;;;27.10;34.99
12664;BME280;6396;58.490;15.528;2023-05-22T11:26:19;100953.88;;;23.71;35.75
12664;BME280;6396;58.490;15.528;2023-05-22T11:28:57;100698.19;;;22.36;37.19
12664;BME280;6396;58.490;15.528;2023-05-22T11:31:26;100787.75;;;23.10;35.32
12664;BME280;6396;58.490;15.528;2023-05-22T11:33:54;100731.38;;;22.72;35.50
12664;BME280;6396;58.490;15.528;2023-05-22T11:36:24;101523.56;;;27.06;36.94
12664;BME280;6396;58.490;15.528;2023-05-22T11:38:56;100618.53;;;22.09;34.47
12664;BME280;6396;58.490;15.528;2023-05-22T11:41:31;101449.09;;;27.10;33.85
12664;BME280;6396;58.490;15.528;2023-05-22T11:43:59;100988.38;;;23.78;36.02
12664;BME280;6396;58.490;15.528;2023-05-22T11:46:26;101195.47;;;25.18;35.90
12664;BME280;6396;58.490;15.528;2023-05-22T11:48:55;101442.41;;;26.59;36.30
12664;BME280;6396;58.490;15.528;2023-05-22T11:51:22;100659.88;;;21.58;37.28
12664;BME280;6396;58.490;15.528;2023-05-22T11:53:50;100633.94;;;21.70;37.22
12664;BME280;6396;58.490;15.528;2023-05-22T11:56:22;101413.53;;;26.24;37.60
12664;BME280;6396;58.490;15.528;2023-05-22T11:58:52;100777.66;;;22.03;37.91
12664;BME280;6396;58.490;15.528;2023-05-22T12:01:20;100706.34;;;21.48;38.57
12664;BME280;6396;58.490;15.528;2023-05-22T12:03:51;100661.38;;;21.25;38.34
12664;BME280;6396;58.490;15.528;2023-05-22T12:06:20;101288.59;;;25.03;38.76
12664;BME280;6396;58.490;15.528;2023-05-22T12:08:47;100641.63;;;21.13;39.43
12664;BME280;6396;58.490;15.528;2023-05-22T12:11:15;100595.09;;;21.13;39.00
12664;BME280;6396;58.490;15.528;2023-05-22T12:13:44;100739.38;;;22.00;39.85
12664;BME280;6396;58.490;15.528;2023-05-22T12:16:20;101022.38;;;23.32;35.23
12664;BME280;6396;58.490;15.528;2023-05-22T12:18:51;101188.47;;;24.81;38.80
12664;BME280;6396;58.490;15.528;2023-05-22T12:21:18;101379.22;;;25.90;37.62
12664;BME280;6396;58.490;15.528;2023-05-22T12:23:49;100704.59;;;21.72;38.72
12664;BME280;6396;58.490;15.528;2023-05-22T12:26:16;100856.06;;;22.85;35.91
12664;BME280;6396;58.490;15.528;2023-05-22T12:28:43;101062.13;;;24.02;36.36
12664;BME280;6396;58.490;15.528;2023-05-22T12:31:20;101192.84;;;24.47;36.60
12664;BME280;6396;58.490;15.528;2023-05-22T12:33:47;100952.22;;;23.21;37.84
12664;BME280;6396;58.490;15.528;2023-05-22T12:36:14;100894.34;;;23.14;37.96
12664;BME280;6396;58.490;15.528;2023-05-22T12:38:42;100738.91;;;21.56;37.04
12664;BME280;6396;58.490;15.528;2023-05-22T12:41:09;101057.09;;;23.24;35.66
12664;BME280;6396;58.490;15.528;2023-05-22T12:43:36;100630.47;;;20.80;35.00
12664;BME280;6396;58.490;15.528;2023-05-22T12:46:03;101094.63;;;23.52;36.77
12664;BME280;6396;58.490;15.528;2023-05-22T12:48:31;100595.63;;;21.05;37.92
12664;BME280;6396;58.490;15.528;2023-05-22T12:50:58;100982.38;;;23.26;37.80
12664;BME280;6396;58.490;15.528;2023-05-22T12:53:26;101149.19;;;24.17;38.72
12664;BME280;6396;58.490;15.528;2023-05-22T12:55:53;100603.13;;;20.61;38.45
12664;BME280;6396;58.490;15.528;2023-05-22T12:58:20;100976.25;;;23.11;38.85
12664;BME280;6396;58.490;15.528;2023-05-22T13:00:47;100709.19;;;20.93;39.25
12664;BME280;6396;58.490;15.528;2023-05-22T13:03:15;101139.81;;;23.97;39.35
12664;BME280;6396;58.490;15.528;2023-05-22T13:05:43;101262.03;;;24.73;39.00
12664;BME280;6396;58.490;15.528;2023-05-22T13:08:10;100971.44;;;22.79;38.67
12664;BME280;6396;58.490;15.528;2023-05-22T13:10:38;101020.75;;;23.55;38.46
12664;BME280;6396;58.490;15.528;2023-05-22T13:13:11;101329.72;;;25.19;37.85
12664;BME280;6396;58.490;15.528;2023-05-22T13:15:38;100606.94;;;20.96;38.69
12664;BME280;6396;58.490;15.528;2023-05-22T13:18:06;101322.06;;;25.13;38.74
12664;BME280;6396;58.490;15.528;2023-05-22T13:20:33;100719.22;;;21.30;39.37
12664;BME280;6396;58.490;15.528;2023-05-22T13:23:04;101424.53;;;24.92;38.79
12664;BME280;6396;58.490;15.528;2023-05-22T13:25:31;100979.72;;;22.88;38.42
12664;BME280;6396;58.490;15.528;2023-05-22T13:27:59;101310.84;;;24.70;38.76
12664;BME280;6396;58.490;15.528;2023-05-22T13:30:28;100894.84;;;22.45;38.04
12664;BME280;6396;58.490;15.528;2023-05-22T13:32:56;100918.31;;;22.05;38.31
12664;BME280;6396;58.490;15.528;2023-05-22T13:35:23;101262.03;;;24.61;38.62